Norridge, Illinois
Current Conditions -  °F | °C
As of 3:51 PM on Friday 28 Nov 2014 (Local Time) from KORD Reporting Station
Overcast Overcast  
Wind Chill: 20°   Ceiling: 2000
Heat Index: 31°   Visibility: 9mi
Dew Point: 24°   Wind: 16mph
Humidity: 76%   Direction: 170°S
Pressure: 29.98"   Gusts: 24mph
Location:  41.9716°N, 87.822°W
Report Text: KORD 282151Z 17014G21KT 9SM OVC020 M01/M04 A2998 RMK AO2 SLP162 T10061044
Loading
Personal Weather Stations






























Interactive Weather Map New forecast layout! Learn more

10-Day Weather Forecast

Advertisements
Track Severe Weather on mobile